createdAt,value
2022-11-30T00:00:34.560Z,95618.2
2022-11-30T00:01:36.770Z,95618.8
2022-11-30T00:02:39.595Z,95617.8
2022-11-30T00:03:42.260Z,95618.9
2022-11-30T00:04:45.478Z,95619.8
2022-11-30T00:05:48.176Z,95618.2
2022-11-30T00:06:50.673Z,95623.5
2022-11-30T00:07:53.187Z,95618.7
2022-11-30T00:08:55.833Z,95620.8
2022-11-30T00:09:58.369Z,95623
2022-11-30T00:11:00.839Z,95620.9
2022-11-30T00:12:02.833Z,95618.6
2022-11-30T00:13:05.030Z,95619.7
2022-11-30T00:14:07.511Z,95625.6
2022-11-30T00:15:09.498Z,95619.2
2022-11-30T00:16:11.689Z,95617.3
2022-11-30T00:17:14.177Z,95617.9
2022-11-30T00:18:16.665Z,95620.3
2022-11-30T00:19:19.130Z,95619.2
2022-11-30T00:20:21.346Z,95617.5
2022-11-30T00:21:23.823Z,95615.4
2022-11-30T00:22:26.321Z,95621
2022-11-30T00:23:28.799Z,95619.8
2022-11-30T00:24:31.349Z,95620
2022-11-30T00:25:33.851Z,95621.2
2022-11-30T00:26:36.342Z,95618.1
2022-11-30T00:27:38.821Z,95623.4
2022-11-30T00:28:41.030Z,95619.4
2022-11-30T00:29:42.951Z,95618.2
2022-11-30T00:30:45.462Z,95617.2
2022-11-30T00:31:47.761Z,95621.4
2022-11-30T00:32:50.244Z,95620.6
2022-11-30T00:33:52.823Z,95619.3
2022-11-30T00:34:55.325Z,95619.4
2022-11-30T00:35:57.808Z,95620.3
2022-11-30T00:37:00.296Z,95621
2022-11-30T00:38:02.213Z,95622.3
2022-11-30T00:39:04.439Z,95622.8
2022-11-30T00:40:06.978Z,95621.1
2022-11-30T00:41:09.522Z,95626.5
2022-11-30T00:42:12.003Z,95626
2022-11-30T00:43:13.944Z,95627.3
2022-11-30T00:44:16.141Z,95627.5
2022-11-30T00:45:18.630Z,95631.5
2022-11-30T00:46:21.388Z,95626.7
2022-11-30T00:47:23.747Z,95626
2022-11-30T00:48:26.219Z,95628.4
2022-11-30T00:49:28.713Z,95633
2022-11-30T00:50:30.913Z,95635.9
2022-11-30T00:51:33.407Z,95633.5
2022-11-30T00:52:35.877Z,95634.8
2022-11-30T00:53:38.071Z,95634.3
2022-11-30T00:54:40.536Z,95635.7
2022-11-30T00:55:43.103Z,95634.6
2022-11-30T00:56:45.330Z,95640.9
2022-11-30T00:57:47.809Z,95639.5
2022-11-30T00:58:50.016Z,95642.3
2022-11-30T00:59:52.489Z,95635.7
2022-11-30T01:00:54.639Z,95641.7
2022-11-30T01:01:56.934Z,95645.7
2022-11-30T01:02:59.426Z,95647.2
2022-11-30T01:04:01.620Z,95643.2
2022-11-30T01:05:03.882Z,95644.8
2022-11-30T01:06:05.803Z,95643.2
2022-11-30T01:07:08.290Z,95645.4
2022-11-30T01:08:10.945Z,95640.6
2022-11-30T01:09:13.428Z,95642.7
2022-11-30T01:10:15.635Z,95644.3
2022-11-30T01:11:18.225Z,95644
2022-11-30T01:12:20.174Z,95640.1
2022-11-30T01:13:22.658Z,95638
2022-11-30T01:14:24.580Z,95647.9
2022-11-30T01:15:26.776Z,95641.5
2022-11-30T01:16:28.418Z,95638.8
2022-11-30T01:17:30.612Z,95644.9
2022-11-30T01:18:33.093Z,95643.6
2022-11-30T01:19:35.581Z,95645.4
2022-11-30T01:20:38.081Z,95643
2022-11-30T01:21:40.268Z,95641.9
2022-11-30T01:22:42.466Z,95647.4
2022-11-30T01:23:44.977Z,95646.5
2022-11-30T01:24:48.645Z,95649.4
2022-11-30T01:25:51.469Z,95643.1
2022-11-30T01:26:54.014Z,95646.8
2022-11-30T01:27:56.509Z,95647.4
2022-11-30T01:28:58.711Z,95642.8
2022-11-30T01:30:01.199Z,95644.9
2022-11-30T01:31:04.158Z,95644.5
2022-11-30T01:32:06.505Z,95644.9
2022-11-30T01:33:08.704Z,95643.3
2022-11-30T01:34:10.913Z,95642.1
2022-11-30T01:35:12.835Z,95644.9
2022-11-30T01:36:15.064Z,95646.4
2022-11-30T01:37:17.250Z,95643.9
2022-11-30T01:38:19.164Z,95644.2
2022-11-30T01:39:21.367Z,95647.6
2022-11-30T01:40:23.314Z,95642.3
2022-11-30T01:41:25.512Z,95644.1
2022-11-30T01:42:28.071Z,95641.1
2022-11-30T01:43:30.574Z,95641.1
2022-11-30T01:44:32.784Z,95641.1
2022-11-30T01:45:35.254Z,95645.8
2022-11-30T01:46:37.518Z,95642.1
2022-11-30T01:47:40.121Z,95646.5
2022-11-30T01:48:42.061Z,95645.6
2022-11-30T01:49:44.548Z,95646.7
2022-11-30T01:50:46.739Z,95644.4
2022-11-30T01:51:48.966Z,95644.9
2022-11-30T01:52:51.450Z,95648.3
2022-11-30T01:53:53.377Z,95651.8
2022-11-30T01:54:55.592Z,95640.6
2022-11-30T01:55:57.781Z,95647.4
2022-11-30T01:57:00.245Z,95646.3
2022-11-30T01:58:02.803Z,95645.2
2022-11-30T01:59:05.020Z,95644.2
2022-11-30T02:00:07.523Z,95642.7
2022-11-30T02:01:09.868Z,95644.6
2022-11-30T02:02:12.350Z,95644.4
2022-11-30T02:03:14.642Z,95646.3
2022-11-30T02:04:16.860Z,95645.3
2022-11-30T02:05:19.334Z,95644.4
2022-11-30T02:06:21.818Z,95645.1
2022-11-30T02:07:24.823Z,95645.1
2022-11-30T02:08:28.031Z,95645.2
2022-11-30T02:09:30.499Z,95639.2
2022-11-30T02:10:32.425Z,95640.6
2022-11-30T02:11:34.942Z,95639.7
2022-11-30T02:12:37.149Z,95638.7
2022-11-30T02:13:39.690Z,95640.6
2022-11-30T02:14:42.366Z,95635
2022-11-30T02:15:45.431Z,95635.1
2022-11-30T02:16:48.394Z,95633
2022-11-30T02:17:51.189Z,95638.8
2022-11-30T02:18:53.670Z,95636.4
2022-11-30T02:19:56.145Z,95640.7
2022-11-30T02:20:58.627Z,95640.1
2022-11-30T02:22:00.823Z,95638.1
2022-11-30T02:23:03.069Z,95639.7
2022-11-30T02:24:05.933Z,95643.7
2022-11-30T02:25:08.728Z,95642.9
2022-11-30T02:26:11.057Z,95644.8
2022-11-30T02:27:14.280Z,95645.5
2022-11-30T02:28:16.799Z,95643.9
2022-11-30T02:29:19.245Z,95642.2
2022-11-30T02:30:21.739Z,95647
2022-11-30T02:31:24.443Z,95650.1
2022-11-30T02:32:27.102Z,95644.5
2022-11-30T02:33:29.306Z,95650.7
2022-11-30T02:34:31.789Z,95651
2022-11-30T02:35:34.269Z,95653
2022-11-30T02:36:36.742Z,95653.2
2022-11-30T02:37:39.216Z,95655.7
2022-11-30T02:38:41.727Z,95653.4
2022-11-30T02:39:44.471Z,95650.7
2022-11-30T02:40:47.013Z,95654.6
2022-11-30T02:41:49.497Z,95653.9
2022-11-30T02:42:51.686Z,95651.2
2022-11-30T02:43:54.169Z,95653.9
2022-11-30T02:44:56.411Z,95657.4
2022-11-30T02:45:59.165Z,95659.9
2022-11-30T02:47:01.463Z,95662.1
2022-11-30T02:48:03.666Z,95657.7
2022-11-30T02:49:05.894Z,95663.4
2022-11-30T02:50:08.362Z,95661.7
2022-11-30T02:51:10.565Z,95659.9
2022-11-30T02:52:13.029Z,95661.3
2022-11-30T02:53:15.537Z,95659.9
2022-11-30T02:54:17.751Z,95654.5
2022-11-30T02:55:20.238Z,95656.1
2022-11-30T02:56:22.720Z,95658
2022-11-30T02:57:24.931Z,95656
2022-11-30T02:58:27.400Z,95657.8
2022-11-30T02:59:29.592Z,95659.7
2022-11-30T03:00:32.155Z,95655.3
2022-11-30T03:01:34.879Z,95653.2
2022-11-30T03:02:37.598Z,95655.4
2022-11-30T03:03:40.144Z,95658.6
2022-11-30T03:04:42.626Z,95662.1
2022-11-30T03:05:44.634Z,95658.1
2022-11-30T03:06:47.155Z,95655.4
2022-11-30T03:07:49.592Z,95658.8
2022-11-30T03:08:52.247Z,95662.5
2022-11-30T03:09:54.464Z,95662.3
2022-11-30T03:10:56.663Z,95662.5
2022-11-30T03:11:59.165Z,95659.8
2022-11-30T03:13:01.516Z,95662
2022-11-30T03:14:03.146Z,95662.6
2022-11-30T03:15:05.621Z,95665.8
2022-11-30T03:16:08.270Z,95664.8
2022-11-30T03:17:10.891Z,95661.5
2022-11-30T03:18:13.389Z,95659.9
2022-11-30T03:19:15.645Z,95667.3
2022-11-30T03:20:18.137Z,95668.9
2022-11-30T03:21:20.055Z,95669.4
2022-11-30T03:22:22.548Z,95670.3
2022-11-30T03:23:25.022Z,95670.4
2022-11-30T03:24:27.505Z,95671.9
2022-11-30T03:25:29.743Z,95667.8
2022-11-30T03:26:31.689Z,95672
2022-11-30T03:27:33.879Z,95675
2022-11-30T03:28:36.079Z,95676.2
2022-11-30T03:29:38.566Z,95677.1
2022-11-30T03:30:41.055Z,95673
2022-11-30T03:31:43.663Z,95672.2
2022-11-30T03:32:46.216Z,95677.7
2022-11-30T03:33:48.691Z,95679.9
2022-11-30T03:34:51.454Z,95683.4
2022-11-30T03:35:53.629Z,95677.6
2022-11-30T03:36:55.844Z,95678.4
2022-11-30T03:37:58.321Z,95680
2022-11-30T03:39:00.547Z,95688.6
2022-11-30T03:40:02.752Z,95691.4
2022-11-30T03:41:05.277Z,95694.2
2022-11-30T03:42:07.757Z,95689.9
2022-11-30T03:43:09.954Z,95688.9
2022-11-30T03:44:12.436Z,95683.7
2022-11-30T03:45:14.933Z,95688.2
2022-11-30T03:46:17.223Z,95687.3
2022-11-30T03:47:19.562Z,95687.7
2022-11-30T03:48:22.084Z,95686.6
2022-11-30T03:49:24.003Z,95680.7
2022-11-30T03:50:26.483Z,95689.5
2022-11-30T03:51:28.958Z,95688.1
2022-11-30T03:52:30.873Z,95680.4
2022-11-30T03:53:33.043Z,95678.3
2022-11-30T03:54:34.963Z,95679.6
2022-11-30T03:55:37.152Z,95676.4
2022-11-30T03:56:39.661Z,95674.8
2022-11-30T03:57:42.140Z,95673.4
2022-11-30T03:58:44.345Z,95677.9
2022-11-30T03:59:46.546Z,95680.6
2022-11-30T04:00:48.751Z,95671.3
2022-11-30T04:01:50.987Z,95677.5
2022-11-30T04:02:53.794Z,95675.3
2022-11-30T04:03:56.360Z,95680.4
2022-11-30T04:04:58.838Z,95683.3
2022-11-30T04:06:01.057Z,95683
2022-11-30T04:07:03.554Z,95684.3
2022-11-30T04:08:05.746Z,95686
2022-11-30T04:09:08.225Z,95684.5
2022-11-30T04:10:10.495Z,95690.2
2022-11-30T04:11:12.980Z,95678.1
2022-11-30T04:12:15.495Z,95684.4
2022-11-30T04:13:18.083Z,95681.3
2022-11-30T04:14:20.576Z,95676.6
2022-11-30T04:15:22.791Z,95676.4
2022-11-30T04:16:25.503Z,95679.3
2022-11-30T04:17:28.067Z,95675.1
2022-11-30T04:18:30.630Z,95679.9
2022-11-30T04:19:33.158Z,95671.8
2022-11-30T04:21:40.606Z,95669.9
2022-11-30T04:22:43.020Z,95670
2022-11-30T04:23:45.492Z,95669.2
2022-11-30T04:24:49.354Z,95668.6
2022-11-30T04:25:52.014Z,95672.6
2022-11-30T04:26:54.219Z,95668.3
2022-11-30T04:27:56.440Z,95674.8
2022-11-30T04:30:04.602Z,95687.3
2022-11-30T04:31:07.411Z,95688.1
2022-11-30T04:32:09.973Z,95684.4
2022-11-30T04:33:12.180Z,95683.5
2022-11-30T04:34:14.442Z,95681.3
2022-11-30T04:35:16.940Z,95680.3
2022-11-30T04:36:19.442Z,95685.6
2022-11-30T04:37:21.649Z,95679.9
2022-11-30T04:38:24.485Z,95681.2
2022-11-30T04:39:27.167Z,95679.3
2022-11-30T04:40:29.449Z,95676.9
2022-11-30T04:41:32.035Z,95678.5
2022-11-30T04:42:34.322Z,95679.7
2022-11-30T04:43:36.864Z,95679.9
2022-11-30T04:44:39.380Z,95681.3
2022-11-30T04:45:41.905Z,95684.8
2022-11-30T04:46:44.709Z,95684.2
2022-11-30T04:47:47.077Z,95680
2022-11-30T04:48:49.306Z,95678
2022-11-30T04:49:51.888Z,95686.3
2022-11-30T04:50:54.134Z,95689.2
2022-11-30T04:51:56.629Z,95692.3
2022-11-30T04:52:58.821Z,95694.8
2022-11-30T04:54:01.045Z,95693
2022-11-30T04:55:03.530Z,95695.6
2022-11-30T04:56:05.442Z,95695
2022-11-30T04:57:07.366Z,95695.2
2022-11-30T04:58:09.568Z,95694.2
2022-11-30T04:59:11.878Z,95689.7
2022-11-30T05:00:14.350Z,95691.8
2022-11-30T05:01:16.776Z,95689.3
2022-11-30T05:02:19.339Z,95692
2022-11-30T05:03:21.808Z,95696.3
2022-11-30T05:04:24.185Z,95692.3
2022-11-30T05:05:26.852Z,95697.8
2022-11-30T05:06:29.359Z,95697.8
2022-11-30T05:07:31.478Z,95693.6
2022-11-30T05:08:34.022Z,95692.6
2022-11-30T05:09:36.219Z,95694.4
2022-11-30T05:10:38.699Z,95697.3
2022-11-30T05:11:41.174Z,95691.8
2022-11-30T05:12:43.092Z,95694.9
2022-11-30T05:13:45.290Z,95698.9
2022-11-30T05:14:49.189Z,95700.6
2022-11-30T05:15:52.343Z,95700.2
2022-11-30T05:16:54.866Z,95704
2022-11-30T05:17:57.341Z,95699.9
2022-11-30T05:18:59.555Z,95698.9
2022-11-30T05:20:02.032Z,95697.2
2022-11-30T05:21:04.592Z,95702
2022-11-30T05:22:07.100Z,95703.2
2022-11-30T05:23:09.585Z,95700
2022-11-30T05:24:12.088Z,95699.5
2022-11-30T05:25:14.553Z,95697.2
2022-11-30T05:26:17.038Z,95699.4
2022-11-30T05:28:24.491Z,95706.3
2022-11-30T05:29:26.695Z,95706.1
2022-11-30T05:30:28.642Z,95705.6
2022-11-30T05:31:31.200Z,95706.8
2022-11-30T05:32:33.902Z,95707.9
2022-11-30T05:33:36.385Z,95707.7
2022-11-30T05:35:43.665Z,95709.3
2022-11-30T05:36:46.237Z,95710.3
2022-11-30T05:37:48.445Z,95712.6
2022-11-30T05:38:50.947Z,95712.9
2022-11-30T05:39:53.437Z,95712.7
2022-11-30T05:40:55.353Z,95710.8
2022-11-30T05:41:57.544Z,95714.9
2022-11-30T05:42:59.763Z,95715.6
2022-11-30T05:44:02.232Z,95718.1
2022-11-30T05:45:04.715Z,95718.9
2022-11-30T05:46:06.938Z,95722.2
2022-11-30T05:47:09.736Z,95719.6
2022-11-30T05:48:12.345Z,95723.3
2022-11-30T05:49:14.849Z,95721.4
2022-11-30T05:50:17.051Z,95720.5
2022-11-30T05:51:19.271Z,95718.3
2022-11-30T05:52:21.828Z,95717.9
2022-11-30T05:53:24.337Z,95715.5
2022-11-30T05:54:26.811Z,95720.5
2022-11-30T05:55:29.289Z,95723.2
2022-11-30T05:56:31.492Z,95720.4
2022-11-30T05:57:33.546Z,95721.4
2022-11-30T05:58:36.053Z,95721.6
2022-11-30T05:59:38.538Z,95721.8
2022-11-30T06:00:40.747Z,95722.3
2022-11-30T06:01:43.880Z,95726
2022-11-30T06:02:46.668Z,95728.9
2022-11-30T06:03:49.197Z,95729.8
2022-11-30T06:04:51.716Z,95727.8
2022-11-30T06:05:54.268Z,95728.7
2022-11-30T06:06:56.772Z,95726.5
2022-11-30T06:07:59.258Z,95726.6
2022-11-30T06:09:01.594Z,95728.4
2022-11-30T06:10:04.074Z,95728.6
2022-11-30T06:11:06.555Z,95727.4
2022-11-30T06:12:09.042Z,95728.6
2022-11-30T06:13:11.531Z,95725.2
2022-11-30T06:14:14.020Z,95726.6
2022-11-30T06:15:16.488Z,95727
2022-11-30T06:16:19.212Z,95727.6
2022-11-30T06:17:21.518Z,95724.8
2022-11-30T06:18:24.004Z,95725.2
2022-11-30T06:19:26.210Z,95724.6
2022-11-30T06:20:28.689Z,95722.3
2022-11-30T06:21:30.646Z,95724
2022-11-30T06:22:33.132Z,95720.7
2022-11-30T06:23:35.655Z,95723.1
2022-11-30T06:24:38.159Z,95723.5
2022-11-30T06:25:40.624Z,95719.8
2022-11-30T06:26:43.106Z,95721.5
2022-11-30T06:27:45.598Z,95717.5
2022-11-30T06:28:50.236Z,95720
2022-11-30T06:29:52.445Z,95720.7
2022-11-30T06:30:54.637Z,95719.9
2022-11-30T06:31:56.793Z,95720.5
2022-11-30T06:32:59.373Z,95719.6
2022-11-30T06:34:01.853Z,95720.8
2022-11-30T06:35:03.779Z,95723.2
2022-11-30T06:36:05.688Z,95727.9
2022-11-30T06:37:07.886Z,95724.4
2022-11-30T06:38:10.362Z,95725
2022-11-30T06:39:12.924Z,95719.9
2022-11-30T06:40:15.444Z,95720
2022-11-30T06:41:17.914Z,95721
2022-11-30T06:42:20.144Z,95722.3
2022-11-30T06:43:22.315Z,95725
2022-11-30T06:44:24.809Z,95722.8
2022-11-30T06:45:27.550Z,95722.7
2022-11-30T06:46:29.861Z,95719.7
2022-11-30T06:47:32.334Z,95720.1
2022-11-30T06:48:34.853Z,95718.4
2022-11-30T06:49:37.391Z,95719.2
2022-11-30T06:50:39.878Z,95718.5
2022-11-30T06:51:46.816Z,95722.6
2022-11-30T06:52:48.756Z,95725
2022-11-30T06:53:51.239Z,95725.5
2022-11-30T06:54:53.852Z,95730
2022-11-30T06:55:56.105Z,95732.8
2022-11-30T06:56:58.596Z,95729.2
2022-11-30T06:58:01.063Z,95730.7
2022-11-30T06:59:03.549Z,95727.8
2022-11-30T07:00:06.045Z,95727.8
2022-11-30T07:01:08.635Z,95729
2022-11-30T07:03:15.625Z,95742.4
2022-11-30T07:04:17.768Z,95741.7
2022-11-30T07:05:20.087Z,95741.4
2022-11-30T07:06:22.354Z,95737.3
2022-11-30T07:07:25.049Z,95737.8
2022-11-30T07:08:27.312Z,95733.3
2022-11-30T07:09:29.225Z,95737.2
2022-11-30T07:10:31.777Z,95737.2
2022-11-30T07:11:34.269Z,95731.3
2022-11-30T07:12:36.755Z,95732.8
2022-11-30T07:13:38.958Z,95735.6
2022-11-30T07:14:41.437Z,95733.9
2022-11-30T07:15:43.628Z,95736.2
2022-11-30T07:16:46.272Z,95738.1
2022-11-30T07:17:48.521Z,95738.6
2022-11-30T07:18:50.729Z,95736.1
2022-11-30T07:19:53.217Z,95734.9
2022-11-30T07:20:55.427Z,95735.9
2022-11-30T07:21:57.904Z,95726
2022-11-30T07:23:00.393Z,95734.7
2022-11-30T07:24:02.602Z,95735.7
2022-11-30T07:25:05.095Z,95736.7
2022-11-30T07:26:07.657Z,95740.2
2022-11-30T07:27:10.168Z,95737.2
2022-11-30T07:28:12.102Z,95738.7
2022-11-30T07:29:14.285Z,95739.6
2022-11-30T07:30:16.497Z,95740.6
2022-11-30T07:31:19.100Z,95739.5
2022-11-30T07:32:20.916Z,95739.1
2022-11-30T07:33:23.389Z,95739.6
2022-11-30T07:34:25.589Z,95747.2
2022-11-30T07:35:28.093Z,95745.3
2022-11-30T07:36:30.036Z,95742.8
2022-11-30T07:37:31.970Z,95743.7
2022-11-30T07:38:34.442Z,95741.7
2022-11-30T07:39:36.639Z,95740.6
2022-11-30T07:40:38.839Z,95741.4
2022-11-30T07:41:41.117Z,95743.5
2022-11-30T07:42:43.343Z,95745.1
2022-11-30T07:43:45.544Z,95740.1
2022-11-30T07:45:54.962Z,95742.1
2022-11-30T07:46:57.538Z,95741.6
2022-11-30T07:47:59.742Z,95743.3
2022-11-30T07:49:02.239Z,95741.5
2022-11-30T07:50:04.724Z,95738.8
2022-11-30T07:51:06.969Z,95742.6
2022-11-30T07:52:09.454Z,95741.5
2022-11-30T07:53:11.375Z,95743.4
2022-11-30T07:54:13.278Z,95744.1
2022-11-30T07:55:15.479Z,95746
2022-11-30T07:56:17.424Z,95745.5
2022-11-30T07:57:20.054Z,95744.7
2022-11-30T07:58:22.577Z,95741.6
2022-11-30T07:59:24.502Z,95743.6
2022-11-30T08:00:27.089Z,95742.5
2022-11-30T08:01:30.208Z,95739.2
2022-11-30T08:02:33.265Z,95744
2022-11-30T08:04:41.105Z,95743.6
2022-11-30T08:05:43.439Z,95742.1
2022-11-30T08:06:45.966Z,95743.1
2022-11-30T08:07:48.596Z,95738.1
2022-11-30T08:08:50.965Z,95737.1
2022-11-30T08:09:53.448Z,95736.4
2022-11-30T08:10:55.647Z,95736.2
2022-11-30T08:11:57.834Z,95736.1
2022-11-30T08:13:00.153Z,95737.5
2022-11-30T08:14:02.400Z,95739.6
2022-11-30T08:16:09.845Z,95748.8
2022-11-30T08:17:12.090Z,95750.7
2022-11-30T08:18:14.567Z,95744.4
2022-11-30T08:19:17.072Z,95750.5
2022-11-30T08:20:18.468Z,95750.9
2022-11-30T08:21:20.408Z,95752.4
2022-11-30T08:22:22.637Z,95749.3
2022-11-30T08:23:25.131Z,95747
2022-11-30T08:24:27.757Z,95754.2
2022-11-30T08:25:30.323Z,95748.9
2022-11-30T08:26:32.819Z,95747.4
2022-11-30T08:27:35.031Z,95747
2022-11-30T08:28:37.600Z,95744.5
2022-11-30T08:29:40.115Z,95745.2
2022-11-30T08:30:42.641Z,95748
2022-11-30T08:31:45.339Z,95748.3
2022-11-30T08:32:47.563Z,95750.4
2022-11-30T08:33:50.135Z,95748.5
2022-11-30T08:34:52.178Z,95750.6
2022-11-30T08:35:54.385Z,95751.1
2022-11-30T08:36:56.890Z,95749.4
2022-11-30T08:37:59.116Z,95751.7
2022-11-30T08:39:01.610Z,95749
2022-11-30T08:40:04.112Z,95748.5
2022-11-30T08:41:06.333Z,95750.3
2022-11-30T08:42:08.548Z,95751.1
2022-11-30T08:43:10.472Z,95748.2
2022-11-30T08:44:13.043Z,95752.2
2022-11-30T08:45:15.528Z,95752.8
2022-11-30T08:47:23.140Z,95754.1
2022-11-30T08:48:25.466Z,95750.9
2022-11-30T08:49:27.943Z,95753.3
2022-11-30T08:50:29.867Z,95753.8
2022-11-30T08:52:37.323Z,95752.7
2022-11-30T08:53:39.321Z,95758.3
2022-11-30T08:54:41.530Z,95759.1
2022-11-30T08:55:44.025Z,95762
2022-11-30T08:56:46.508Z,95766
2022-11-30T08:57:49.010Z,95767.2
2022-11-30T08:58:50.917Z,95766.9
2022-11-30T08:59:53.469Z,95767.7
2022-11-30T09:00:56.109Z,95767.8
2022-11-30T09:01:58.080Z,95767.5
2022-11-30T09:03:00.818Z,95769.7
2022-11-30T09:04:03.144Z,95766.9
2022-11-30T09:05:05.345Z,95767.4
2022-11-30T09:06:07.830Z,95766.2
2022-11-30T09:07:10.096Z,95765.4
2022-11-30T09:08:12.351Z,95767.5
2022-11-30T09:09:14.881Z,95771.6
2022-11-30T09:10:16.813Z,95769
2022-11-30T09:11:18.438Z,95771.4
2022-11-30T09:12:20.942Z,95771.2
2022-11-30T09:13:23.417Z,95768.8
2022-11-30T09:14:25.626Z,95769.7
2022-11-30T09:15:27.910Z,95774.3
2022-11-30T09:16:30.435Z,95771.2
2022-11-30T09:17:32.920Z,95771.6
2022-11-30T09:18:35.410Z,95772.8
2022-11-30T09:19:37.880Z,95775
2022-11-30T09:20:39.799Z,95774.4
2022-11-30T09:22:47.774Z,95777
2022-11-30T09:23:50.263Z,95776.6
2022-11-30T09:24:52.521Z,95777.6
2022-11-30T09:25:54.759Z,95776.7
2022-11-30T09:26:57.266Z,95779
2022-11-30T09:27:59.541Z,95777.6
2022-11-30T09:29:02.019Z,95774.4
2022-11-30T09:30:04.516Z,95778.3
2022-11-30T09:31:07.256Z,95776.8
2022-11-30T09:32:09.838Z,95778.8
2022-11-30T09:33:12.032Z,95776.4
2022-11-30T09:34:13.973Z,95777.3
2022-11-30T09:35:16.447Z,95773.1
2022-11-30T09:36:18.372Z,95771.5
2022-11-30T09:37:20.884Z,95766.4
2022-11-30T09:38:22.893Z,95761.7
2022-11-30T09:39:25.379Z,95764.5
2022-11-30T09:41:32.873Z,95762.1
2022-11-30T09:42:34.855Z,95768.5
2022-11-30T09:43:37.053Z,95765.8
2022-11-30T09:44:39.283Z,95766.5
2022-11-30T09:45:41.757Z,95767.8
2022-11-30T09:46:44.556Z,95767.6
2022-11-30T09:47:47.080Z,95770.1
2022-11-30T09:48:49.568Z,95765.7
2022-11-30T09:49:51.489Z,95763.5
2022-11-30T09:50:53.977Z,95762.7
2022-11-30T09:51:56.460Z,95766.5
2022-11-30T09:52:58.671Z,95766.1
2022-11-30T09:54:01.150Z,95767.5
2022-11-30T09:55:03.364Z,95768.2
2022-11-30T09:56:05.862Z,95767.8
2022-11-30T09:57:08.073Z,95768.6
2022-11-30T09:58:10.277Z,95767.3
2022-11-30T09:59:12.769Z,95770
2022-11-30T10:00:15.256Z,95769.7
2022-11-30T10:01:17.982Z,95769
2022-11-30T10:02:21.412Z,95766.2
2022-11-30T10:03:24.785Z,95767.8
2022-11-30T10:04:27.385Z,95768
2022-11-30T10:05:29.878Z,95766.7
2022-11-30T10:06:32.091Z,95762.5
2022-11-30T10:07:34.549Z,95764
2022-11-30T10:08:37.215Z,95765
2022-11-30T10:09:39.293Z,95757
2022-11-30T10:10:41.773Z,95762.5
2022-11-30T10:11:44.282Z,95760.8
2022-11-30T10:12:46.246Z,95758.4
2022-11-30T10:13:48.448Z,95760
2022-11-30T10:15:57.732Z,95759.7
2022-11-30T10:17:00.019Z,95755.5
2022-11-30T10:18:02.589Z,95761
2022-11-30T10:19:05.118Z,95760
2022-11-30T10:20:07.331Z,95761.3
2022-11-30T10:21:09.835Z,95761.6
2022-11-30T10:22:12.043Z,95760.8
2022-11-30T10:23:13.983Z,95761.1
2022-11-30T10:24:16.223Z,95761.2
2022-11-30T10:25:18.724Z,95760.4
2022-11-30T10:26:21.510Z,95759.3
2022-11-30T10:27:24.232Z,95760.4
2022-11-30T10:29:31.706Z,95762.9
2022-11-30T10:30:34.198Z,95760
2022-11-30T10:31:36.742Z,95761.4
2022-11-30T10:32:39.363Z,95763
2022-11-30T10:33:41.999Z,95760.8
2022-11-30T10:34:44.295Z,95765
2022-11-30T10:35:46.924Z,95763.6
2022-11-30T10:36:48.578Z,95764.9
2022-11-30T10:37:50.503Z,95764.4
2022-11-30T10:38:52.442Z,95764.6
2022-11-30T10:39:54.926Z,95769.3
2022-11-30T10:40:56.867Z,95761.3
2022-11-30T10:41:59.342Z,95766.9
2022-11-30T10:43:01.848Z,95766.1
2022-11-30T10:44:04.333Z,95763.1
2022-11-30T10:45:06.287Z,95763.9
2022-11-30T10:47:13.478Z,95759.6
2022-11-30T10:48:15.983Z,95756.1
2022-11-30T10:49:18.585Z,95757.2
2022-11-30T10:50:21.100Z,95754.1
2022-11-30T10:51:23.595Z,95756.3
2022-11-30T10:52:26.100Z,95753.1
2022-11-30T10:53:28.290Z,95750.6
2022-11-30T10:54:30.507Z,95747.8
2022-11-30T10:55:33.001Z,95748.5
2022-11-30T10:56:35.495Z,95745.9
2022-11-30T10:57:37.699Z,95748.2
2022-11-30T10:58:40.228Z,95744
2022-11-30T10:59:42.480Z,95744.3
2022-11-30T11:00:44.968Z,95743.3
2022-11-30T11:01:47.567Z,95745.6
2022-11-30T11:02:49.693Z,95744.3
2022-11-30T11:03:52.698Z,95743.4
2022-11-30T11:04:55.056Z,95746.1
2022-11-30T11:05:57.595Z,95743.4
2022-11-30T11:07:00.241Z,95741.4
2022-11-30T11:09:07.874Z,95742.8
2022-11-30T11:10:09.875Z,95741.8
2022-11-30T11:11:12.367Z,95738.9
2022-11-30T11:12:14.873Z,95739.2
2022-11-30T11:13:17.065Z,95735
2022-11-30T11:14:19.566Z,95738.3
2022-11-30T11:15:22.075Z,95735.2
2022-11-30T11:16:24.987Z,95736.1
2022-11-30T11:17:27.383Z,95735.4
2022-11-30T11:18:29.969Z,95731.6
2022-11-30T11:19:32.177Z,95732.6
2022-11-30T11:20:34.772Z,95736
2022-11-30T11:21:37.482Z,95735.5
2022-11-30T11:22:39.975Z,95734.5
2022-11-30T11:23:42.456Z,95735
2022-11-30T11:24:44.966Z,95733.4
2022-11-30T11:25:47.470Z,95735.3
2022-11-30T11:26:49.953Z,95733.2
2022-11-30T11:27:52.165Z,95734.4
2022-11-30T11:28:54.390Z,95732.7
2022-11-30T11:29:56.610Z,95735.5
2022-11-30T11:30:59.109Z,95731.8
2022-11-30T11:32:01.434Z,95739.3
2022-11-30T11:33:03.931Z,95736.2
2022-11-30T11:34:06.123Z,95733.3
2022-11-30T11:35:08.325Z,95733.6
2022-11-30T11:36:10.581Z,95734.7
2022-11-30T11:37:12.809Z,95732.4
2022-11-30T11:38:15.309Z,95736.5
2022-11-30T11:39:17.511Z,95733.6
2022-11-30T11:40:19.723Z,95732.6
2022-11-30T11:41:21.640Z,95733.1
2022-11-30T11:42:24.263Z,95731.8
2022-11-30T11:43:26.768Z,95732.5
2022-11-30T11:44:29.039Z,95732.2
2022-11-30T11:45:31.556Z,95731.9
2022-11-30T11:46:33.861Z,95734.1
2022-11-30T11:47:36.194Z,95732.9
2022-11-30T11:48:38.394Z,95735.7
2022-11-30T11:49:40.619Z,95733.3
2022-11-30T11:51:47.860Z,95727.9
2022-11-30T11:52:50.380Z,95729.3
2022-11-30T11:54:57.577Z,95729.7
2022-11-30T11:56:00.133Z,95730.9
2022-11-30T11:57:02.650Z,95728.5
2022-11-30T11:58:05.144Z,95730.8
2022-11-30T11:59:07.077Z,95731
2022-11-30T12:02:19.520Z,95727.7
2022-11-30T12:03:22.098Z,95727.4
2022-11-30T12:04:24.745Z,95730
2022-11-30T12:05:27.045Z,95731
2022-11-30T12:06:29.252Z,95729.7
2022-11-30T12:07:32.201Z,95726.6
2022-11-30T12:08:34.826Z,95729.2
2022-11-30T12:09:37.315Z,95730.8
2022-11-30T12:11:44.507Z,95726.4
2022-11-30T12:13:51.684Z,95728.9
2022-11-30T12:14:53.353Z,95725
2022-11-30T12:15:56.013Z,95728.8
2022-11-30T12:16:58.367Z,95721.2
2022-11-30T12:18:00.582Z,95723.9
2022-11-30T12:19:02.790Z,95715.7
2022-11-30T12:20:04.837Z,95716.4
2022-11-30T12:21:07.363Z,95722.2
2022-11-30T12:22:09.871Z,95720.3
2022-11-30T12:23:12.452Z,95714.6
2022-11-30T12:24:14.679Z,95717.1
2022-11-30T12:25:17.210Z,95714.9
2022-11-30T12:26:19.674Z,95719.3
2022-11-30T12:27:21.901Z,95721.4
2022-11-30T12:28:24.098Z,95717.7
2022-11-30T12:29:26.726Z,95722
2022-11-30T12:30:28.661Z,95719.6
2022-11-30T12:31:31.017Z,95725.8
2022-11-30T12:32:33.341Z,95724.9
2022-11-30T12:33:35.827Z,95725.5
2022-11-30T12:34:38.310Z,95721.9
2022-11-30T12:35:40.541Z,95725.1
2022-11-30T12:36:43.022Z,95725.3
2022-11-30T12:38:50.621Z,95728.7
2022-11-30T12:39:53.147Z,95728.5
2022-11-30T12:40:55.345Z,95731.6
2022-11-30T12:41:57.536Z,95729.6
2022-11-30T12:43:00.015Z,95728.3
2022-11-30T12:44:02.742Z,95727.7
2022-11-30T12:45:04.947Z,95727
2022-11-30T12:46:07.652Z,95727.5
2022-11-30T12:47:10.221Z,95725.6
2022-11-30T12:48:12.737Z,95730.9
2022-11-30T12:49:15.343Z,95729
2022-11-30T12:50:17.727Z,95727.7
2022-11-30T12:51:21.899Z,95729.6
2022-11-30T12:52:26.375Z,95726.7
2022-11-30T12:53:28.878Z,95727.5
2022-11-30T12:54:30.928Z,95722.5
2022-11-30T12:55:33.444Z,95725.3
2022-11-30T12:56:35.628Z,95726.8
2022-11-30T12:57:38.112Z,95725.1
2022-11-30T12:58:40.341Z,95725.6
2022-11-30T12:59:42.545Z,95727.8
2022-11-30T13:00:45.722Z,95720.6
2022-11-30T13:01:48.548Z,95723
2022-11-30T13:02:50.851Z,95725.6
2022-11-30T13:03:53.371Z,95726
2022-11-30T13:06:00.828Z,95720.7